createdAt,value
2019-06-20T00:01:48.471Z,31.45
2019-06-20T00:06:50.981Z,29.55
2019-06-20T00:09:46.474Z,33.95
2019-06-20T00:12:15.202Z,31.68
2019-06-20T00:18:39.936Z,32.38
2019-06-20T00:24:13.471Z,33.92
2019-06-20T00:26:44.788Z,34.08
2019-06-20T00:32:00.575Z,34.15
2019-06-20T00:34:42.626Z,38.58
2019-06-20T00:37:17.404Z,35.83
2019-06-20T00:39:48.752Z,38.88
2019-06-20T00:42:20.483Z,34.70
2019-06-20T00:44:58.269Z,37.70
2019-06-20T00:47:29.518Z,38.50
2019-06-20T00:52:42.438Z,42.67
2019-06-20T00:55:17.423Z,41.68
2019-06-20T00:58:07.257Z,44.33
2019-06-20T01:00:38.680Z,44.60
2019-06-20T01:03:10.038Z,50.80
2019-06-20T01:05:58.253Z,50.70
2019-06-20T01:08:34.542Z,54.40
2019-06-20T01:11:05.969Z,64.20
2019-06-20T01:13:46.666Z,62.70
2019-06-20T01:16:36.870Z,61.50
2019-06-20T01:19:17.513Z,60.73
2019-06-20T01:21:51.996Z,58.75
2019-06-20T01:24:39.441Z,62.80
2019-06-20T01:27:11.137Z,62.30
2019-06-20T01:29:57.046Z,64.58
2019-06-20T01:32:42.780Z,62.43
2019-06-20T01:35:17.241Z,59.70
2019-06-20T01:38:36.997Z,66.17
2019-06-20T01:41:11.422Z,67.15
2019-06-20T01:44:22.770Z,66.00
2019-06-20T01:46:57.499Z,67.90
2019-06-20T01:56:57.772Z,60.78
2019-06-20T01:59:47.377Z,65.85
2019-06-20T02:09:03.594Z,68.85
2019-06-20T02:11:45.519Z,68.85
2019-06-20T02:14:21.752Z,66.42
2019-06-20T02:16:50.405Z,72.67
2019-06-20T02:37:08.754Z,68.70
2019-06-20T02:39:43.332Z,68.55
2019-06-20T02:42:22.600Z,81.28
2019-06-20T02:44:54.339Z,78.00
2019-06-20T02:47:33.050Z,80.40
2019-06-20T02:50:05.872Z,79.22
2019-06-20T02:52:41.957Z,79.30
2019-06-20T02:55:13.926Z,80.47
2019-06-20T02:57:44.737Z,79.42
2019-06-20T03:00:33.920Z,84.65
2019-06-20T03:03:02.561Z,85.45
2019-06-20T03:05:31.257Z,87.35
2019-06-20T03:08:08.691Z,87.37
2019-06-20T03:10:40.523Z,79.82
2019-06-20T03:13:21.092Z,86.97
2019-06-20T03:15:54.021Z,81.13
2019-06-20T03:18:28.745Z,90.32
2019-06-20T03:21:08.396Z,90.92
2019-06-20T03:23:39.099Z,91.87
2019-06-20T03:26:21.815Z,89.00
2019-06-20T03:28:50.403Z,87.60
2019-06-20T03:31:49.178Z,96.30
2019-06-20T03:34:23.699Z,98.67
2019-06-20T03:37:05.126Z,94.75
2019-06-20T03:42:06.688Z,88.57
2019-06-20T03:44:41.215Z,91.80
2019-06-20T03:47:11.881Z,89.20
2019-06-20T03:49:40.569Z,85.28
2019-06-20T03:52:54.270Z,89.62
2019-06-20T03:55:24.872Z,89.70
2019-06-20T03:58:20.448Z,83.42
2019-06-20T04:01:24.276Z,77.50
2019-06-20T04:07:29.819Z,64.58
2019-06-20T04:10:05.321Z,60.98
2019-06-20T04:12:35.885Z,60.55
2019-06-20T04:15:19.033Z,66.55
2019-06-20T04:17:52.989Z,57.87
2019-06-20T04:20:30.581Z,68.02
2019-06-20T04:23:05.239Z,74.58
2019-06-20T04:25:36.849Z,61.98
2019-06-20T04:28:16.532Z,65.90
2019-06-20T04:30:45.185Z,61.08
2019-06-20T04:33:19.537Z,72.42
2019-06-20T04:36:06.197Z,66.25
2019-06-20T04:38:40.985Z,71.12
2019-06-20T04:41:49.264Z,61.53
2019-06-20T04:44:20.552Z,65.45
2019-06-20T04:49:38.166Z,57.73
2019-06-20T04:52:15.802Z,58.73
2019-06-20T04:54:44.456Z,52.35
2019-06-20T04:57:16.057Z,50.78
2019-06-20T05:00:02.117Z,52.20
2019-06-20T05:02:36.521Z,47.58
2019-06-20T05:05:06.790Z,43.80
2019-06-20T05:07:38.044Z,43.38
2019-06-20T05:13:20.821Z,45.05
2019-06-20T05:16:05.040Z,40.67
2019-06-20T05:19:06.605Z,40.38
2019-06-20T05:24:32.767Z,36.93
2019-06-20T05:27:04.046Z,39.55
2019-06-20T05:32:12.519Z,38.13
2019-06-20T05:34:48.928Z,37.30
2019-06-20T05:37:20.540Z,33.85
2019-06-20T05:39:49.157Z,34.58
2019-06-20T05:42:29.974Z,31.30
2019-06-20T05:45:01.568Z,35.55
2019-06-20T05:47:39.118Z,36.85
2019-06-20T05:50:10.352Z,34.98
2019-06-20T05:55:19.366Z,38.58
2019-06-20T05:57:53.843Z,36.23
2019-06-20T06:00:23.821Z,34.27
2019-06-20T06:02:55.544Z,35.17
2019-06-20T06:05:34.616Z,31.82
2019-06-20T06:08:05.888Z,33.05
2019-06-20T06:13:07.369Z,29.25
2019-06-20T06:15:38.979Z,29.12
2019-06-20T06:18:10.694Z,26.90
2019-06-20T06:20:44.805Z,24.35
2019-06-20T06:23:28.010Z,22.95
2019-06-20T06:26:05.230Z,20.97
2019-06-20T06:29:08.436Z,25.72
2019-06-20T06:32:04.450Z,24.50
2019-06-20T06:34:36.092Z,24.05
2019-06-20T06:37:17.450Z,29.40
2019-06-20T06:42:21.215Z,27.02
2019-06-20T06:45:02.100Z,29.77
2019-06-20T06:47:36.644Z,29.25
2019-06-20T06:50:13.168Z,27.48
2019-06-20T06:52:48.136Z,26.93
2019-06-20T06:55:19.488Z,28.05
2019-06-20T07:00:58.242Z,26.73
2019-06-20T07:04:18.156Z,24.55
2019-06-20T07:06:52.838Z,26.70
2019-06-20T07:09:35.336Z,25.72
2019-06-20T07:12:59.999Z,28.73
2019-06-20T07:15:34.385Z,29.18
2019-06-20T07:18:06.036Z,24.67
2019-06-20T07:20:39.843Z,26.50
2019-06-20T07:23:11.124Z,25.43
2019-06-20T07:28:56.708Z,30.32
2019-06-20T07:31:31.108Z,25.72
2019-06-20T07:34:02.450Z,25.77
2019-06-20T07:36:39.819Z,27.77
2019-06-20T07:39:21.256Z,27.65
2019-06-20T07:41:49.898Z,25.72
2019-06-20T07:44:24.361Z,26.02
2019-06-20T07:46:53.023Z,26.12
2019-06-20T07:49:34.697Z,27.98
2019-06-20T07:52:06.304Z,20.15
2019-06-20T07:54:37.520Z,18.30
2019-06-20T07:59:51.878Z,19.92
2019-06-20T08:02:23.610Z,22.30
2019-06-20T08:05:02.179Z,22.67
2019-06-20T08:08:22.379Z,19.00
2019-06-20T08:10:54.126Z,17.55
2019-06-20T08:13:41.156Z,14.93
2019-06-20T08:16:09.912Z,16.90
2019-06-20T08:18:41.528Z,18.45
2019-06-20T08:21:12.912Z,12.07
2019-06-20T08:23:47.197Z,14.63
2019-06-20T08:26:31.971Z,11.75
2019-06-20T08:33:26.879Z,10.40
2019-06-20T08:36:04.509Z,12.23
2019-06-20T08:38:39.160Z,12.95
2019-06-20T08:41:10.745Z,12.05
2019-06-20T08:43:45.803Z,11.53
2019-06-20T08:46:14.457Z,12.68
2019-06-20T08:48:44.156Z,9.53
2019-06-20T08:51:14.680Z,10.63
2019-06-20T08:53:45.638Z,11.40
2019-06-20T08:56:40.356Z,11.40
2019-06-20T08:59:36.194Z,10.72
2019-06-20T09:02:22.938Z,9.80
2019-06-20T09:09:26.397Z,12.63
2019-06-20T09:12:16.096Z,10.03
2019-06-20T09:14:50.400Z,14.60
2019-06-20T09:17:20.906Z,10.48
2019-06-20T09:19:52.911Z,10.58
2019-06-20T09:22:30.991Z,8.00
2019-06-20T09:25:07.023Z,7.53
2019-06-20T09:28:31.604Z,9.85
2019-06-20T09:31:07.256Z,8.80
2019-06-20T09:33:42.036Z,5.90
2019-06-20T09:36:57.526Z,7.05
2019-06-20T09:39:38.180Z,7.50
2019-06-20T09:42:09.435Z,5.35
2019-06-20T09:44:54.106Z,4.90
2019-06-20T09:47:28.561Z,6.17
2019-06-20T09:50:01.185Z,6.28
2019-06-20T09:53:19.269Z,4.40
2019-06-20T09:55:55.876Z,6.20
2019-06-20T09:58:27.229Z,4.47
2019-06-20T10:00:58.484Z,5.47
2019-06-20T10:03:33.027Z,3.85
2019-06-20T10:06:19.472Z,7.35
2019-06-20T10:08:57.209Z,6.55
2019-06-20T10:11:33.929Z,5.17
2019-06-20T10:14:08.531Z,5.30
2019-06-20T10:16:47.482Z,6.95
2019-06-20T10:19:59.660Z,8.08
2019-06-20T10:22:34.542Z,3.80
2019-06-20T10:25:06.438Z,4.70
2019-06-20T10:27:40.942Z,3.70
2019-06-20T10:30:16.392Z,5.08
2019-06-20T10:32:51.148Z,8.05
2019-06-20T10:35:26.093Z,5.95
2019-06-20T10:37:57.714Z,7.17
2019-06-20T10:40:29.049Z,7.22
2019-06-20T10:43:23.377Z,7.00
2019-06-20T10:45:55.039Z,6.25
2019-06-20T10:48:36.252Z,4.53
2019-06-20T10:51:25.696Z,7.35
2019-06-20T10:53:56.579Z,5.70
2019-06-20T10:59:58.865Z,5.28
2019-06-20T11:02:30.123Z,6.60
2019-06-20T11:05:07.161Z,5.20
2019-06-20T11:07:42.460Z,4.67
2019-06-20T11:10:16.031Z,5.25
2019-06-20T11:12:53.837Z,5.50
2019-06-20T11:15:19.075Z,4.83
2019-06-20T11:17:48.644Z,6.65
2019-06-20T11:20:56.687Z,5.75
2019-06-20T11:23:28.295Z,5.72
2019-06-20T11:25:59.906Z,7.05
2019-06-20T11:28:28.684Z,7.03
2019-06-20T11:31:00.472Z,8.58
2019-06-20T11:33:31.977Z,5.85
2019-06-20T11:36:07.589Z,6.10
2019-06-20T11:38:40.696Z,8.95
2019-06-20T11:41:11.968Z,9.05
2019-06-20T11:43:42.577Z,5.83
2019-06-20T11:46:17.244Z,8.20
2019-06-20T11:48:49.103Z,6.28
2019-06-20T11:51:23.409Z,9.48
2019-06-20T11:53:55.014Z,5.08
2019-06-20T11:56:29.393Z,6.75
2019-06-20T11:59:34.728Z,5.33
2019-06-20T12:02:30.909Z,4.95
2019-06-20T12:05:02.572Z,6.78
2019-06-20T12:07:39.548Z,5.00
2019-06-20T12:10:14.593Z,4.30
2019-06-20T12:12:50.284Z,7.58
2019-06-20T12:15:46.632Z,6.97
2019-06-20T12:21:45.113Z,4.78
2019-06-20T12:24:22.783Z,6.35
2019-06-20T12:26:51.859Z,3.35
2019-06-20T12:29:29.808Z,3.72
2019-06-20T12:32:10.306Z,3.70
2019-06-20T12:34:42.222Z,9.83
2019-06-20T12:37:16.728Z,3.90
2019-06-20T12:39:48.663Z,4.75
2019-06-20T12:42:41.814Z,4.90
2019-06-20T12:45:15.881Z,5.35
2019-06-20T12:48:41.258Z,5.20
2019-06-20T12:51:19.566Z,6.20
2019-06-20T12:54:15.455Z,4.33
2019-06-20T12:57:03.603Z,4.05
2019-06-20T12:59:35.416Z,4.90
2019-06-20T13:02:23.429Z,4.90
2019-06-20T13:04:57.926Z,4.42
2019-06-20T13:07:32.551Z,6.05
2019-06-20T13:10:16.392Z,4.70
2019-06-20T13:12:51.616Z,5.78
2019-06-20T13:15:26.038Z,5.20
2019-06-20T13:17:57.536Z,4.67
2019-06-20T13:20:29.160Z,5.25
2019-06-20T13:23:18.944Z,3.98
2019-06-20T13:26:26.802Z,7.78
2019-06-20T13:29:03.977Z,4.50
2019-06-20T13:31:29.631Z,4.92
2019-06-20T13:34:30.447Z,6.03
2019-06-20T13:37:01.809Z,4.97
2019-06-20T13:40:07.628Z,5.87
2019-06-20T13:42:39.011Z,3.45
2019-06-20T13:45:40.543Z,4.22
2019-06-20T13:48:50.680Z,4.33
2019-06-20T13:51:22.103Z,7.60
2019-06-20T13:57:22.473Z,3.50
2019-06-20T14:00:07.125Z,5.60
2019-06-20T14:02:36.766Z,7.40
2019-06-20T14:05:10.917Z,8.15
2019-06-20T14:07:46.718Z,7.83
2019-06-20T14:13:38.371Z,9.28
2019-06-20T14:16:19.217Z,12.45
2019-06-20T14:19:10.440Z,9.68
2019-06-20T14:24:09.908Z,9.18
2019-06-20T14:26:59.514Z,10.28
2019-06-20T14:29:34.015Z,8.70
2019-06-20T14:32:05.328Z,11.85
2019-06-20T14:34:36.630Z,16.87
2019-06-20T14:37:07.920Z,15.90
2019-06-20T14:39:52.847Z,17.15
2019-06-20T14:42:29.166Z,10.78
2019-06-20T14:44:57.846Z,14.30
2019-06-20T14:47:29.619Z,7.17
2019-06-20T14:50:11.217Z,16.25
2019-06-20T14:52:44.184Z,15.55
2019-06-20T14:55:13.558Z,14.90
2019-06-20T14:57:56.306Z,19.10
2019-06-20T15:00:26.880Z,11.43
2019-06-20T15:02:58.893Z,11.08
2019-06-20T15:05:30.350Z,12.68
2019-06-20T15:08:29.595Z,8.93
2019-06-20T15:11:06.031Z,13.25
2019-06-20T15:13:37.801Z,11.63
2019-06-20T15:16:15.531Z,13.80
2019-06-20T15:18:46.490Z,16.25
2019-06-20T15:21:41.714Z,11.25
2019-06-20T15:27:55.758Z,15.50
2019-06-20T15:30:33.338Z,14.83
2019-06-20T15:33:32.808Z,12.28
2019-06-20T15:36:08.441Z,12.78
2019-06-20T15:38:38.076Z,12.50
2019-06-20T15:41:15.624Z,16.23
2019-06-20T15:43:51.763Z,14.73
2019-06-20T15:46:23.777Z,16.45
2019-06-20T15:49:15.393Z,13.18
2019-06-20T15:51:37.495Z,8.18
2019-06-20T15:54:09.221Z,6.92
2019-06-20T15:56:54.822Z,8.00
2019-06-20T15:59:51.652Z,8.60
2019-06-20T16:02:27.085Z,8.50
2019-06-20T16:04:58.489Z,10.00
2019-06-20T16:07:45.369Z,8.33
2019-06-20T16:10:15.030Z,7.87
2019-06-20T16:12:44.600Z,10.00
2019-06-20T16:15:16.409Z,8.98
2019-06-20T16:17:47.644Z,8.83
2019-06-20T16:20:17.236Z,10.80
2019-06-20T16:23:05.024Z,9.70
2019-06-20T16:25:33.657Z,8.95
2019-06-20T16:28:02.359Z,8.88
2019-06-20T16:30:50.790Z,9.53
2019-06-20T16:33:33.643Z,7.47
2019-06-20T16:36:05.961Z,7.58
2019-06-20T16:38:43.679Z,8.75
2019-06-20T16:41:49.143Z,9.08
2019-06-20T16:44:41.252Z,8.00
2019-06-20T16:47:12.020Z,5.70
2019-06-20T16:49:54.709Z,8.08
2019-06-20T16:52:26.423Z,6.42
2019-06-20T16:54:57.700Z,6.03
2019-06-20T16:57:42.379Z,6.03
2019-06-20T17:00:22.607Z,7.70
2019-06-20T17:03:06.059Z,7.28
2019-06-20T17:05:53.751Z,5.90
2019-06-20T17:08:33.198Z,7.15
2019-06-20T17:11:05.439Z,8.58
2019-06-20T17:13:34.423Z,6.12
2019-06-20T17:16:09.357Z,7.25
2019-06-20T17:18:39.344Z,6.87
2019-06-20T17:21:13.790Z,9.03
2019-06-20T17:23:45.455Z,5.45
2019-06-20T17:26:16.706Z,7.55
2019-06-20T17:28:48.092Z,7.42
2019-06-20T17:31:19.348Z,5.90
2019-06-20T17:33:57.491Z,7.60
2019-06-20T17:36:31.360Z,5.80
2019-06-20T17:39:08.418Z,3.12
2019-06-20T17:41:54.845Z,6.55
2019-06-20T17:44:19.251Z,5.62
2019-06-20T17:46:53.844Z,4.85
2019-06-20T17:49:22.492Z,4.53
2019-06-20T17:51:51.110Z,2.37
2019-06-20T17:54:19.920Z,4.55
2019-06-20T17:56:58.642Z,3.87
2019-06-20T17:59:27.220Z,3.77
2019-06-20T18:01:57.879Z,3.92
2019-06-20T18:04:45.843Z,4.50
2019-06-20T18:07:14.438Z,5.08
2019-06-20T18:09:44.964Z,6.62
2019-06-20T18:12:27.618Z,6.03
2019-06-20T18:14:56.569Z,5.40
2019-06-20T18:17:26.405Z,2.33
2019-06-20T18:19:55.069Z,4.05
2019-06-20T18:22:26.862Z,5.03
2019-06-20T18:24:58.432Z,5.12
2019-06-20T18:27:37.200Z,3.98
2019-06-20T18:30:14.698Z,5.22
2019-06-20T18:32:51.888Z,4.60
2019-06-20T18:35:27.366Z,2.77
2019-06-20T18:38:00.997Z,4.67
2019-06-20T18:40:35.925Z,4.42
2019-06-20T18:46:33.280Z,6.60
2019-06-20T18:49:10.099Z,3.92
2019-06-20T18:51:44.555Z,4.37
2019-06-20T18:54:13.150Z,4.47
2019-06-20T18:57:51.592Z,3.37
2019-06-20T19:00:34.095Z,4.37
2019-06-20T19:02:54.196Z,5.17
2019-06-20T19:05:40.267Z,6.92
2019-06-20T19:08:12.034Z,3.83
2019-06-20T19:10:48.892Z,4.92
2019-06-20T19:13:30.883Z,3.98
2019-06-20T19:15:59.468Z,8.05
2019-06-20T19:19:09.380Z,7.10
2019-06-20T19:21:40.763Z,6.72
2019-06-20T19:26:37.214Z,5.00
2019-06-20T19:29:09.343Z,3.65
2019-06-20T19:37:19.744Z,5.50
2019-06-20T19:39:51.108Z,7.87
2019-06-20T19:42:26.504Z,7.65
2019-06-20T19:44:55.084Z,7.40
2019-06-20T19:47:26.852Z,4.62
2019-06-20T19:49:55.561Z,7.10
2019-06-20T19:52:37.185Z,4.28
2019-06-20T19:55:36.059Z,6.67
2019-06-20T19:58:11.632Z,5.03
2019-06-20T20:00:44.551Z,4.50
2019-06-20T20:03:37.612Z,6.37
2019-06-20T20:06:24.595Z,5.90
2019-06-20T20:09:18.284Z,6.05
2019-06-20T20:12:44.747Z,5.28
2019-06-20T20:15:15.790Z,7.65
2019-06-20T20:17:59.243Z,7.08
2019-06-20T20:20:27.838Z,7.28
2019-06-20T20:22:56.673Z,7.53
2019-06-20T20:25:33.772Z,8.18
2019-06-20T20:28:03.578Z,4.50
2019-06-20T20:30:34.265Z,7.75
2019-06-20T20:33:08.758Z,5.47
2019-06-20T20:35:41.527Z,7.85
2019-06-20T20:38:14.366Z,13.05
2019-06-20T20:40:51.652Z,5.85
2019-06-20T20:43:22.265Z,7.45
2019-06-20T20:45:58.655Z,3.55
2019-06-20T20:48:30.271Z,5.03
2019-06-20T20:50:58.990Z,7.95
2019-06-20T20:53:27.586Z,6.85
2019-06-20T20:56:26.526Z,6.65
2019-06-20T20:59:24.651Z,8.53
2019-06-20T21:01:53.344Z,4.10
2019-06-20T21:04:24.616Z,5.00
2019-06-20T21:06:59.214Z,5.83
2019-06-20T21:09:34.853Z,4.85
2019-06-20T21:12:12.756Z,4.10
2019-06-20T21:14:43.360Z,7.75
2019-06-20T21:17:22.013Z,4.85
2019-06-20T21:19:50.651Z,7.62
2019-06-20T21:22:19.266Z,6.90
2019-06-20T21:25:07.014Z,8.20
2019-06-20T21:27:41.426Z,5.80
2019-06-20T21:30:13.635Z,5.83
2019-06-20T21:32:49.101Z,8.63
2019-06-20T21:35:18.172Z,5.87
2019-06-20T21:37:49.786Z,8.45
2019-06-20T21:40:30.592Z,7.08
2019-06-20T21:43:02.207Z,6.83
2019-06-20T21:45:30.808Z,5.80
2019-06-20T21:48:13.693Z,6.62
2019-06-20T21:50:48.191Z,9.38
2019-06-20T21:53:25.751Z,4.72
2019-06-20T21:56:00.335Z,9.80
2019-06-20T21:58:28.922Z,9.00
2019-06-20T22:01:01.672Z,7.37
2019-06-20T22:03:43.470Z,6.30
2019-06-20T22:06:23.789Z,7.95
2019-06-20T22:08:52.521Z,6.65
2019-06-20T22:11:29.101Z,6.75
2019-06-20T22:14:03.623Z,8.10
2019-06-20T22:16:32.313Z,7.97
2019-06-20T22:19:04.393Z,7.25
2019-06-20T22:21:40.352Z,6.37
2019-06-20T22:24:10.023Z,10.15
2019-06-20T22:26:56.899Z,7.37
2019-06-20T22:29:34.487Z,7.17
2019-06-20T22:32:06.298Z,6.12
2019-06-20T22:34:41.139Z,5.25
2019-06-20T22:37:18.848Z,4.30
2019-06-20T22:39:53.720Z,5.83
2019-06-20T22:42:28.194Z,8.28
2019-06-20T22:45:07.962Z,7.35
2019-06-20T22:47:39.846Z,6.08
2019-06-20T22:50:14.916Z,8.05
2019-06-20T22:52:43.657Z,7.92
2019-06-20T22:55:25.205Z,7.55
2019-06-20T22:57:56.720Z,4.65
2019-06-20T23:03:05.448Z,10.03
2019-06-20T23:05:36.751Z,12.15
2019-06-20T23:08:16.407Z,3.75
2019-06-20T23:10:51.054Z,7.62
2019-06-20T23:13:23.365Z,4.67
2019-06-20T23:15:57.837Z,7.87
2019-06-20T23:21:31.106Z,6.12
2019-06-20T23:24:32.361Z,4.10
2019-06-20T23:27:03.784Z,5.97
2019-06-20T23:32:11.249Z,6.08
2019-06-20T23:34:46.822Z,4.78
2019-06-20T23:37:25.878Z,6.97
2019-06-20T23:40:00.405Z,5.72
2019-06-20T23:42:30.046Z,7.40
2019-06-20T23:45:07.634Z,6.90
2019-06-20T23:47:38.547Z,9.30
2019-06-20T23:50:10.883Z,7.55
2019-06-20T23:52:53.489Z,7.28
2019-06-20T23:55:24.053Z,8.03
2019-06-20T23:57:52.813Z,8.90
